sensor_id;sensor_type;location;lat;lon;timestamp;P1;durP1;ratioP1;P2;durP2;ratioP2
43620;SDS011;29213;50.770;7.298;2022-12-22T00:01:11;4.97;;;3.70;;
43620;SDS011;29213;50.770;7.298;2022-12-22T00:03:56;4.88;;;3.40;;
43620;SDS011;29213;50.770;7.298;2022-12-22T00:06:40;5.28;;;3.65;;
43620;SDS011;29213;50.770;7.298;2022-12-22T00:09:24;6.25;;;3.70;;
43620;SDS011;29213;50.770;7.298;2022-12-22T00:12:12;5.32;;;4.00;;
43620;SDS011;29213;50.770;7.298;2022-12-22T00:14:58;4.80;;;3.58;;
43620;SDS011;29213;50.770;7.298;2022-12-22T00:17:42;5.43;;;3.67;;
43620;SDS011;29213;50.770;7.298;2022-12-22T00:20:27;5.65;;;4.03;;
43620;SDS011;29213;50.770;7.298;2022-12-22T00:23:11;5.78;;;3.78;;
43620;SDS011;29213;50.770;7.298;2022-12-22T00:25:56;6.18;;;3.58;;
43620;SDS011;29213;50.770;7.298;2022-12-22T00:28:41;5.75;;;3.22;;
43620;SDS011;29213;50.770;7.298;2022-12-22T00:31:26;5.05;;;3.22;;
43620;SDS011;29213;50.770;7.298;2022-12-22T00:34:11;4.70;;;3.15;;
43620;SDS011;29213;50.770;7.298;2022-12-22T00:36:57;5.70;;;3.10;;
43620;SDS011;29213;50.770;7.298;2022-12-22T00:39:41;4.40;;;3.13;;
43620;SDS011;29213;50.770;7.298;2022-12-22T00:42:25;4.80;;;2.70;;
43620;SDS011;29213;50.770;7.298;2022-12-22T00:45:09;3.70;;;2.25;;
43620;SDS011;29213;50.770;7.298;2022-12-22T00:47:53;5.68;;;2.28;;
43620;SDS011;29213;50.770;7.298;2022-12-22T00:50:37;3.75;;;2.08;;
43620;SDS011;29213;50.770;7.298;2022-12-22T00:53:21;3.00;;;1.70;;
43620;SDS011;29213;50.770;7.298;2022-12-22T00:56:05;3.67;;;2.13;;
43620;SDS011;29213;50.770;7.298;2022-12-22T00:58:51;4.43;;;2.15;;
43620;SDS011;29213;50.770;7.298;2022-12-22T01:01:37;3.20;;;1.85;;
43620;SDS011;29213;50.770;7.298;2022-12-22T01:04:21;3.60;;;1.90;;
43620;SDS011;29213;50.770;7.298;2022-12-22T01:07:07;4.13;;;2.13;;
43620;SDS011;29213;50.770;7.298;2022-12-22T01:09:56;3.83;;;2.00;;
43620;SDS011;29213;50.770;7.298;2022-12-22T01:12:41;3.33;;;1.60;;
43620;SDS011;29213;50.770;7.298;2022-12-22T01:15:26;2.67;;;1.60;;
43620;SDS011;29213;50.770;7.298;2022-12-22T01:18:11;3.67;;;1.70;;
43620;SDS011;29213;50.770;7.298;2022-12-22T01:20:55;2.75;;;1.45;;
43620;SDS011;29213;50.770;7.298;2022-12-22T01:23:40;3.65;;;1.80;;
43620;SDS011;29213;50.770;7.298;2022-12-22T01:26:24;3.42;;;1.70;;
43620;SDS011;29213;50.770;7.298;2022-12-22T01:29:09;2.72;;;1.70;;
43620;SDS011;29213;50.770;7.298;2022-12-22T01:31:53;4.10;;;1.83;;
43620;SDS011;29213;50.770;7.298;2022-12-22T01:34:37;4.20;;;2.25;;
43620;SDS011;29213;50.770;7.298;2022-12-22T01:37:22;3.83;;;2.10;;
43620;SDS011;29213;50.770;7.298;2022-12-22T01:40:08;3.80;;;1.88;;
43620;SDS011;29213;50.770;7.298;2022-12-22T01:42:57;2.97;;;1.63;;
43620;SDS011;29213;50.770;7.298;2022-12-22T01:45:41;5.18;;;2.00;;
43620;SDS011;29213;50.770;7.298;2022-12-22T01:48:26;3.83;;;2.38;;
43620;SDS011;29213;50.770;7.298;2022-12-22T01:51:15;3.50;;;2.10;;
43620;SDS011;29213;50.770;7.298;2022-12-22T01:54:03;3.53;;;1.80;;
43620;SDS011;29213;50.770;7.298;2022-12-22T01:56:47;3.55;;;1.90;;
43620;SDS011;29213;50.770;7.298;2022-12-22T01:59:32;2.85;;;1.80;;
43620;SDS011;29213;50.770;7.298;2022-12-22T02:02:16;3.60;;;1.90;;
43620;SDS011;29213;50.770;7.298;2022-12-22T02:05:03;3.30;;;1.70;;
43620;SDS011;29213;50.770;7.298;2022-12-22T02:07:58;2.95;;;1.67;;
43620;SDS011;29213;50.770;7.298;2022-12-22T02:11:06;2.78;;;1.52;;
43620;SDS011;29213;50.770;7.298;2022-12-22T02:14:04;3.05;;;1.60;;
43620;SDS011;29213;50.770;7.298;2022-12-22T02:16:58;3.10;;;1.30;;
43620;SDS011;29213;50.770;7.298;2022-12-22T02:22:55;2.83;;;1.45;;
43620;SDS011;29213;50.770;7.298;2022-12-22T02:28:40;2.38;;;1.40;;
43620;SDS011;29213;50.770;7.298;2022-12-22T02:31:25;3.03;;;1.40;;
43620;SDS011;29213;50.770;7.298;2022-12-22T02:34:16;3.35;;;1.40;;
43620;SDS011;29213;50.770;7.298;2022-12-22T02:37:07;2.85;;;1.40;;
43620;SDS011;29213;50.770;7.298;2022-12-22T02:40:17;3.90;;;1.73;;
43620;SDS011;29213;50.770;7.298;2022-12-22T02:51:44;3.40;;;1.50;;
43620;SDS011;29213;50.770;7.298;2022-12-22T02:54:31;4.15;;;1.45;;
43620;SDS011;29213;50.770;7.298;2022-12-22T02:57:17;3.10;;;1.48;;
43620;SDS011;29213;50.770;7.298;2022-12-22T03:00:02;3.47;;;1.52;;
43620;SDS011;29213;50.770;7.298;2022-12-22T03:02:47;2.85;;;1.50;;
43620;SDS011;29213;50.770;7.298;2022-12-22T03:05:32;5.03;;;1.80;;
43620;SDS011;29213;50.770;7.298;2022-12-22T03:08:16;3.63;;;1.50;;
43620;SDS011;29213;50.770;7.298;2022-12-22T03:11:00;3.30;;;1.60;;
43620;SDS011;29213;50.770;7.298;2022-12-22T03:13:44;2.30;;;1.20;;
43620;SDS011;29213;50.770;7.298;2022-12-22T03:16:28;2.20;;;1.10;;
43620;SDS011;29213;50.770;7.298;2022-12-22T03:19:12;3.58;;;1.15;;
43620;SDS011;29213;50.770;7.298;2022-12-22T03:21:56;1.70;;;0.90;;
43620;SDS011;29213;50.770;7.298;2022-12-22T03:24:40;2.17;;;0.90;;
43620;SDS011;29213;50.770;7.298;2022-12-22T03:27:24;2.88;;;1.00;;
43620;SDS011;29213;50.770;7.298;2022-12-22T03:29:49;1.80;;;0.82;;
43620;SDS011;29213;50.770;7.298;2022-12-22T03:32:15;3.00;;;0.90;;
43620;SDS011;29213;50.770;7.298;2022-12-22T03:34:40;1.15;;;0.65;;
43620;SDS011;29213;50.770;7.298;2022-12-22T03:37:06;2.45;;;1.00;;
43620;SDS011;29213;50.770;7.298;2022-12-22T03:39:31;3.33;;;0.80;;
43620;SDS011;29213;50.770;7.298;2022-12-22T03:41:56;1.95;;;0.77;;
43620;SDS011;29213;50.770;7.298;2022-12-22T03:44:40;2.72;;;0.82;;
43620;SDS011;29213;50.770;7.298;2022-12-22T03:47:24;1.50;;;0.70;;
43620;SDS011;29213;50.770;7.298;2022-12-22T03:49:50;1.10;;;0.60;;
43620;SDS011;29213;50.770;7.298;2022-12-22T03:52:15;1.20;;;0.70;;
43620;SDS011;29213;50.770;7.298;2022-12-22T03:54:41;1.63;;;0.70;;
43620;SDS011;29213;50.770;7.298;2022-12-22T03:57:06;1.70;;;0.80;;
43620;SDS011;29213;50.770;7.298;2022-12-22T03:59:32;1.48;;;0.70;;
43620;SDS011;29213;50.770;7.298;2022-12-22T04:01:57;1.35;;;0.70;;
43620;SDS011;29213;50.770;7.298;2022-12-22T04:04:23;0.93;;;0.60;;
43620;SDS011;29213;50.770;7.298;2022-12-22T04:06:50;1.20;;;0.70;;
43620;SDS011;29213;50.770;7.298;2022-12-22T04:09:16;1.60;;;0.75;;
43620;SDS011;29213;50.770;7.298;2022-12-22T04:11:41;1.52;;;0.80;;
43620;SDS011;29213;50.770;7.298;2022-12-22T04:14:26;2.17;;;0.90;;
43620;SDS011;29213;50.770;7.298;2022-12-22T04:16:51;2.85;;;0.98;;
43620;SDS011;29213;50.770;7.298;2022-12-22T04:19:17;1.15;;;0.68;;
43620;SDS011;29213;50.770;7.298;2022-12-22T04:21:43;1.98;;;0.57;;
43620;SDS011;29213;50.770;7.298;2022-12-22T04:24:09;1.63;;;0.75;;
43620;SDS011;29213;50.770;7.298;2022-12-22T04:26:36;1.52;;;0.77;;
43620;SDS011;29213;50.770;7.298;2022-12-22T04:29:01;3.45;;;0.80;;
43620;SDS011;29213;50.770;7.298;2022-12-22T04:31:27;1.45;;;0.60;;
43620;SDS011;29213;50.770;7.298;2022-12-22T04:33:52;1.25;;;0.60;;
43620;SDS011;29213;50.770;7.298;2022-12-22T04:36:17;1.15;;;0.70;;
43620;SDS011;29213;50.770;7.298;2022-12-22T04:38:43;2.35;;;0.80;;
43620;SDS011;29213;50.770;7.298;2022-12-22T04:41:09;1.90;;;0.70;;
43620;SDS011;29213;50.770;7.298;2022-12-22T04:43:34;1.83;;;0.65;;
43620;SDS011;29213;50.770;7.298;2022-12-22T04:46:00;1.48;;;0.80;;
43620;SDS011;29213;50.770;7.298;2022-12-22T04:48:27;1.70;;;0.80;;
43620;SDS011;29213;50.770;7.298;2022-12-22T04:50:54;2.03;;;0.90;;
43620;SDS011;29213;50.770;7.298;2022-12-22T04:53:21;1.42;;;0.70;;
43620;SDS011;29213;50.770;7.298;2022-12-22T04:55:54;0.85;;;0.50;;
43620;SDS011;29213;50.770;7.298;2022-12-22T04:58:22;2.10;;;0.80;;
43620;SDS011;29213;50.770;7.298;2022-12-22T05:00:47;1.65;;;0.65;;
43620;SDS011;29213;50.770;7.298;2022-12-22T05:03:12;1.15;;;0.60;;
43620;SDS011;29213;50.770;7.298;2022-12-22T05:05:38;1.17;;;0.70;;
43620;SDS011;29213;50.770;7.298;2022-12-22T05:08:04;0.95;;;0.70;;
43620;SDS011;29213;50.770;7.298;2022-12-22T05:10:30;1.92;;;0.80;;
43620;SDS011;29213;50.770;7.298;2022-12-22T05:12:55;1.30;;;0.77;;
43620;SDS011;29213;50.770;7.298;2022-12-22T05:15:22;2.08;;;1.00;;
43620;SDS011;29213;50.770;7.298;2022-12-22T05:17:52;2.42;;;0.73;;
43620;SDS011;29213;50.770;7.298;2022-12-22T05:20:18;1.67;;;0.82;;
43620;SDS011;29213;50.770;7.298;2022-12-22T05:22:44;1.00;;;0.80;;
43620;SDS011;29213;50.770;7.298;2022-12-22T05:25:10;1.10;;;0.70;;
43620;SDS011;29213;50.770;7.298;2022-12-22T05:27:36;1.27;;;0.70;;
43620;SDS011;29213;50.770;7.298;2022-12-22T05:30:03;2.00;;;0.95;;
43620;SDS011;29213;50.770;7.298;2022-12-22T05:32:31;1.95;;;0.88;;
43620;SDS011;29213;50.770;7.298;2022-12-22T05:34:57;3.50;;;1.00;;
43620;SDS011;29213;50.770;7.298;2022-12-22T05:37:22;2.22;;;0.85;;
43620;SDS011;29213;50.770;7.298;2022-12-22T05:39:48;1.50;;;0.80;;
43620;SDS011;29213;50.770;7.298;2022-12-22T05:42:13;2.22;;;0.80;;
43620;SDS011;29213;50.770;7.298;2022-12-22T05:44:38;1.88;;;0.90;;
43620;SDS011;29213;50.770;7.298;2022-12-22T05:47:04;2.40;;;0.80;;
43620;SDS011;29213;50.770;7.298;2022-12-22T05:49:29;1.48;;;0.80;;
43620;SDS011;29213;50.770;7.298;2022-12-22T05:51:55;2.70;;;0.90;;
43620;SDS011;29213;50.770;7.298;2022-12-22T05:54:21;2.20;;;1.00;;
43620;SDS011;29213;50.770;7.298;2022-12-22T05:56:46;2.67;;;1.13;;
43620;SDS011;29213;50.770;7.298;2022-12-22T05:59:12;2.78;;;1.00;;
43620;SDS011;29213;50.770;7.298;2022-12-22T06:01:37;2.13;;;0.90;;
43620;SDS011;29213;50.770;7.298;2022-12-22T06:04:03;2.05;;;0.50;;
43620;SDS011;29213;50.770;7.298;2022-12-22T06:06:28;2.40;;;0.73;;
43620;SDS011;29213;50.770;7.298;2022-12-22T06:08:54;1.08;;;0.50;;
43620;SDS011;29213;50.770;7.298;2022-12-22T06:11:19;2.65;;;0.80;;
43620;SDS011;29213;50.770;7.298;2022-12-22T06:13:45;1.13;;;0.55;;
43620;SDS011;29213;50.770;7.298;2022-12-22T06:16:11;2.00;;;0.60;;
43620;SDS011;29213;50.770;7.298;2022-12-22T06:18:36;1.20;;;0.60;;
43620;SDS011;29213;50.770;7.298;2022-12-22T06:21:02;4.10;;;1.90;;
43620;SDS011;29213;50.770;7.298;2022-12-22T06:23:27;3.80;;;2.00;;
43620;SDS011;29213;50.770;7.298;2022-12-22T06:25:56;3.17;;;1.23;;
43620;SDS011;29213;50.770;7.298;2022-12-22T06:28:26;1.23;;;0.60;;
43620;SDS011;29213;50.770;7.298;2022-12-22T06:30:52;2.40;;;0.70;;
43620;SDS011;29213;50.770;7.298;2022-12-22T06:33:18;0.75;;;0.50;;
43620;SDS011;29213;50.770;7.298;2022-12-22T06:35:43;0.68;;;0.43;;
43620;SDS011;29213;50.770;7.298;2022-12-22T06:38:09;2.22;;;0.60;;
43620;SDS011;29213;50.770;7.298;2022-12-22T06:40:34;2.38;;;0.57;;
43620;SDS011;29213;50.770;7.298;2022-12-22T06:43:00;1.00;;;0.50;;
43620;SDS011;29213;50.770;7.298;2022-12-22T06:45:38;1.33;;;0.60;;
43620;SDS011;29213;50.770;7.298;2022-12-22T06:48:05;1.35;;;0.60;;
43620;SDS011;29213;50.770;7.298;2022-12-22T06:50:32;2.00;;;0.90;;
43620;SDS011;29213;50.770;7.298;2022-12-22T06:52:58;2.10;;;0.80;;
43620;SDS011;29213;50.770;7.298;2022-12-22T06:55:23;2.80;;;1.10;;
43620;SDS011;29213;50.770;7.298;2022-12-22T06:57:48;2.17;;;0.82;;
43620;SDS011;29213;50.770;7.298;2022-12-22T07:00:14;2.38;;;0.90;;
43620;SDS011;29213;50.770;7.298;2022-12-22T07:02:40;2.30;;;0.80;;
43620;SDS011;29213;50.770;7.298;2022-12-22T07:05:05;3.78;;;1.65;;
43620;SDS011;29213;50.770;7.298;2022-12-22T07:07:31;2.53;;;0.90;;
43620;SDS011;29213;50.770;7.298;2022-12-22T07:09:56;1.00;;;0.60;;
43620;SDS011;29213;50.770;7.298;2022-12-22T07:12:22;2.88;;;1.00;;
43620;SDS011;29213;50.770;7.298;2022-12-22T07:14:48;2.60;;;0.90;;
43620;SDS011;29213;50.770;7.298;2022-12-22T07:17:13;3.40;;;0.90;;
43620;SDS011;29213;50.770;7.298;2022-12-22T07:19:39;1.85;;;0.93;;
43620;SDS011;29213;50.770;7.298;2022-12-22T07:22:04;2.05;;;0.90;;
43620;SDS011;29213;50.770;7.298;2022-12-22T07:24:29;2.33;;;0.90;;
43620;SDS011;29213;50.770;7.298;2022-12-22T07:26:55;1.60;;;0.80;;
43620;SDS011;29213;50.770;7.298;2022-12-22T07:29:20;1.10;;;0.60;;
43620;SDS011;29213;50.770;7.298;2022-12-22T07:31:46;1.27;;;0.60;;
43620;SDS011;29213;50.770;7.298;2022-12-22T07:34:12;1.45;;;0.65;;
43620;SDS011;29213;50.770;7.298;2022-12-22T07:36:37;1.27;;;0.70;;
43620;SDS011;29213;50.770;7.298;2022-12-22T07:39:03;2.55;;;1.20;;
43620;SDS011;29213;50.770;7.298;2022-12-22T07:41:28;1.85;;;0.80;;
43620;SDS011;29213;50.770;7.298;2022-12-22T07:44:12;1.17;;;0.70;;
43620;SDS011;29213;50.770;7.298;2022-12-22T07:46:38;0.93;;;0.60;;
43620;SDS011;29213;50.770;7.298;2022-12-22T07:49:04;1.20;;;0.60;;
43620;SDS011;29213;50.770;7.298;2022-12-22T07:51:49;1.10;;;0.70;;
43620;SDS011;29213;50.770;7.298;2022-12-22T07:54:15;1.60;;;0.70;;
43620;SDS011;29213;50.770;7.298;2022-12-22T07:56:42;1.38;;;0.70;;
43620;SDS011;29213;50.770;7.298;2022-12-22T07:59:10;1.60;;;0.70;;
43620;SDS011;29213;50.770;7.298;2022-12-22T08:01:37;2.60;;;1.02;;
43620;SDS011;29213;50.770;7.298;2022-12-22T08:04:04;1.33;;;0.73;;
43620;SDS011;29213;50.770;7.298;2022-12-22T08:06:31;1.80;;;0.90;;
43620;SDS011;29213;50.770;7.298;2022-12-22T08:08:57;1.17;;;0.70;;
43620;SDS011;29213;50.770;7.298;2022-12-22T08:11:22;2.28;;;1.00;;
43620;SDS011;29213;50.770;7.298;2022-12-22T08:13:48;5.40;;;3.60;;
43620;SDS011;29213;50.770;7.298;2022-12-22T08:16:13;2.90;;;1.45;;
43620;SDS011;29213;50.770;7.298;2022-12-22T08:18:39;1.70;;;0.80;;
43620;SDS011;29213;50.770;7.298;2022-12-22T08:21:05;1.48;;;0.80;;
43620;SDS011;29213;50.770;7.298;2022-12-22T08:23:31;1.20;;;0.80;;
43620;SDS011;29213;50.770;7.298;2022-12-22T08:25:59;2.05;;;0.93;;
43620;SDS011;29213;50.770;7.298;2022-12-22T08:28:30;1.95;;;0.90;;
43620;SDS011;29213;50.770;7.298;2022-12-22T08:30:58;2.00;;;1.00;;
43620;SDS011;29213;50.770;7.298;2022-12-22T08:33:26;1.40;;;0.80;;
43620;SDS011;29213;50.770;7.298;2022-12-22T08:35:51;1.75;;;1.00;;
43620;SDS011;29213;50.770;7.298;2022-12-22T08:38:18;1.92;;;1.00;;
43620;SDS011;29213;50.770;7.298;2022-12-22T08:40:55;1.55;;;0.90;;
43620;SDS011;29213;50.770;7.298;2022-12-22T08:43:21;2.47;;;0.95;;
43620;SDS011;29213;50.770;7.298;2022-12-22T08:45:49;2.58;;;1.20;;
43620;SDS011;29213;50.770;7.298;2022-12-22T08:48:15;2.28;;;1.23;;
43620;SDS011;29213;50.770;7.298;2022-12-22T08:50:41;3.45;;;1.60;;
43620;SDS011;29213;50.770;7.298;2022-12-22T08:53:07;2.90;;;1.50;;
43620;SDS011;29213;50.770;7.298;2022-12-22T08:55:34;2.63;;;1.27;;
43620;SDS011;29213;50.770;7.298;2022-12-22T08:58:01;2.55;;;1.40;;
43620;SDS011;29213;50.770;7.298;2022-12-22T09:00:32;4.70;;;1.73;;
43620;SDS011;29213;50.770;7.298;2022-12-22T09:02:58;3.33;;;1.58;;
43620;SDS011;29213;50.770;7.298;2022-12-22T09:05:28;3.75;;;1.85;;
43620;SDS011;29213;50.770;7.298;2022-12-22T09:07:54;4.40;;;2.13;;
43620;SDS011;29213;50.770;7.298;2022-12-22T09:10:20;4.20;;;1.80;;
43620;SDS011;29213;50.770;7.298;2022-12-22T09:12:46;3.78;;;1.90;;
43620;SDS011;29213;50.770;7.298;2022-12-22T09:15:12;3.35;;;2.03;;
43620;SDS011;29213;50.770;7.298;2022-12-22T09:17:39;3.47;;;2.20;;
43620;SDS011;29213;50.770;7.298;2022-12-22T09:20:07;3.85;;;2.00;;
43620;SDS011;29213;50.770;7.298;2022-12-22T09:22:38;3.47;;;2.13;;
43620;SDS011;29213;50.770;7.298;2022-12-22T09:25:04;3.85;;;2.40;;
43620;SDS011;29213;50.770;7.298;2022-12-22T09:27:36;4.47;;;2.47;;
43620;SDS011;29213;50.770;7.298;2022-12-22T09:30:02;3.65;;;2.58;;
43620;SDS011;29213;50.770;7.298;2022-12-22T09:32:34;4.82;;;3.00;;
43620;SDS011;29213;50.770;7.298;2022-12-22T09:35:00;5.05;;;3.58;;
43620;SDS011;29213;50.770;7.298;2022-12-22T09:37:26;5.20;;;4.03;;
43620;SDS011;29213;50.770;7.298;2022-12-22T09:39:52;7.60;;;4.40;;
43620;SDS011;29213;50.770;7.298;2022-12-22T09:42:18;6.90;;;4.63;;
43620;SDS011;29213;50.770;7.298;2022-12-22T09:44:46;6.65;;;4.70;;
43620;SDS011;29213;50.770;7.298;2022-12-22T09:47:33;6.00;;;4.65;;
43620;SDS011;29213;50.770;7.298;2022-12-22T09:50:03;7.78;;;5.28;;
43620;SDS011;29213;50.770;7.298;2022-12-22T09:55:00;8.95;;;6.55;;
43620;SDS011;29213;50.770;7.298;2022-12-22T09:57:32;8.70;;;6.47;;
43620;SDS011;29213;50.770;7.298;2022-12-22T10:00:09;7.18;;;5.03;;
43620;SDS011;29213;50.770;7.298;2022-12-22T10:02:43;7.20;;;4.25;;
43620;SDS011;29213;50.770;7.298;2022-12-22T10:05:23;7.93;;;4.72;;
43620;SDS011;29213;50.770;7.298;2022-12-22T10:08:15;8.13;;;6.40;;
43620;SDS011;29213;50.770;7.298;2022-12-22T10:10:58;8.82;;;6.80;;
43620;SDS011;29213;50.770;7.298;2022-12-22T10:13:24;8.13;;;6.72;;
43620;SDS011;29213;50.770;7.298;2022-12-22T10:15:50;8.88;;;6.70;;
43620;SDS011;29213;50.770;7.298;2022-12-22T10:18:27;7.82;;;6.63;;
43620;SDS011;29213;50.770;7.298;2022-12-22T10:23:46;11.13;;;9.60;;
43620;SDS011;29213;50.770;7.298;2022-12-22T10:36:48;11.13;;;9.35;;
43620;SDS011;29213;50.770;7.298;2022-12-22T10:39:34;11.90;;;9.75;;
43620;SDS011;29213;50.770;7.298;2022-12-22T10:44:45;12.38;;;9.48;;
43620;SDS011;29213;50.770;7.298;2022-12-22T10:47:14;9.98;;;8.32;;
43620;SDS011;29213;50.770;7.298;2022-12-22T10:49:55;11.43;;;9.30;;
43620;SDS011;29213;50.770;7.298;2022-12-22T10:52:27;12.43;;;9.40;;
43620;SDS011;29213;50.770;7.298;2022-12-22T10:57:51;13.82;;;10.85;;
43620;SDS011;29213;50.770;7.298;2022-12-22T11:00:58;14.35;;;10.88;;
43620;SDS011;29213;50.770;7.298;2022-12-22T11:03:27;12.40;;;10.23;;
43620;SDS011;29213;50.770;7.298;2022-12-22T11:05:55;13.57;;;10.98;;
43620;SDS011;29213;50.770;7.298;2022-12-22T11:08:21;13.70;;;10.57;;
43620;SDS011;29213;50.770;7.298;2022-12-22T11:16:12;13.15;;;9.40;;
43620;SDS011;29213;50.770;7.298;2022-12-22T11:21:24;11.95;;;9.32;;
43620;SDS011;29213;50.770;7.298;2022-12-22T11:29:22;11.70;;;8.82;;
43620;SDS011;29213;50.770;7.298;2022-12-22T11:37:50;11.68;;;9.43;;
43620;SDS011;29213;50.770;7.298;2022-12-22T11:46:46;12.20;;;9.68;;
43620;SDS011;29213;50.770;7.298;2022-12-22T11:58:38;12.48;;;10.00;;
43620;SDS011;29213;50.770;7.298;2022-12-22T12:00:59;13.90;;;8.95;;
43620;SDS011;29213;50.770;7.298;2022-12-22T12:04:01;11.82;;;9.05;;
43620;SDS011;29213;50.770;7.298;2022-12-22T12:09:38;12.25;;;9.07;;
43620;SDS011;29213;50.770;7.298;2022-12-22T12:15:23;10.85;;;8.32;;
43620;SDS011;29213;50.770;7.298;2022-12-22T12:17:59;13.02;;;8.10;;
43620;SDS011;29213;50.770;7.298;2022-12-22T12:26:24;12.48;;;9.50;;
43620;SDS011;29213;50.770;7.298;2022-12-22T12:31:57;11.48;;;8.35;;
43620;SDS011;29213;50.770;7.298;2022-12-22T12:34:32;12.05;;;9.73;;
43620;SDS011;29213;50.770;7.298;2022-12-22T12:42:43;9.55;;;6.93;;
43620;SDS011;29213;50.770;7.298;2022-12-22T12:50:50;10.52;;;8.07;;
43620;SDS011;29213;50.770;7.298;2022-12-22T12:53:16;11.88;;;8.48;;
43620;SDS011;29213;50.770;7.298;2022-12-22T13:01:02;11.13;;;7.68;;
43620;SDS011;29213;50.770;7.298;2022-12-22T13:05:54;10.20;;;7.18;;
43620;SDS011;29213;50.770;7.298;2022-12-22T13:08:25;8.88;;;6.60;;
43620;SDS011;29213;50.770;7.298;2022-12-22T13:23:36;8.98;;;6.80;;
43620;SDS011;29213;50.770;7.298;2022-12-22T13:26:08;10.43;;;7.65;;
43620;SDS011;29213;50.770;7.298;2022-12-22T13:28:52;10.15;;;6.90;;
43620;SDS011;29213;50.770;7.298;2022-12-22T13:31:22;9.43;;;7.00;;
43620;SDS011;29213;50.770;7.298;2022-12-22T13:34:02;10.43;;;7.20;;
43620;SDS011;29213;50.770;7.298;2022-12-22T13:36:32;11.30;;;7.68;;
43620;SDS011;29213;50.770;7.298;2022-12-22T13:39:05;10.13;;;7.40;;
43620;SDS011;29213;50.770;7.298;2022-12-22T13:41:36;9.80;;;7.28;;
43620;SDS011;29213;50.770;7.298;2022-12-22T13:44:05;10.93;;;7.60;;
43620;SDS011;29213;50.770;7.298;2022-12-22T13:46:35;9.05;;;6.72;;
43620;SDS011;29213;50.770;7.298;2022-12-22T13:49:03;10.77;;;7.00;;
43620;SDS011;29213;50.770;7.298;2022-12-22T13:51:36;10.50;;;6.88;;
43620;SDS011;29213;50.770;7.298;2022-12-22T13:56:47;11.23;;;6.65;;
43620;SDS011;29213;50.770;7.298;2022-12-22T14:01:49;9.77;;;6.38;;
43620;SDS011;29213;50.770;7.298;2022-12-22T14:04:16;8.80;;;6.20;;
43620;SDS011;29213;50.770;7.298;2022-12-22T14:06:42;8.38;;;6.13;;
43620;SDS011;29213;50.770;7.298;2022-12-22T14:11:37;12.07;;;6.45;;
43620;SDS011;29213;50.770;7.298;2022-12-22T14:14:09;8.70;;;6.30;;
43620;SDS011;29213;50.770;7.298;2022-12-22T14:16:43;9.77;;;6.60;;
43620;SDS011;29213;50.770;7.298;2022-12-22T14:19:12;10.32;;;5.93;;
43620;SDS011;29213;50.770;7.298;2022-12-22T14:21:39;8.77;;;6.03;;
43620;SDS011;29213;50.770;7.298;2022-12-22T14:26:38;8.48;;;6.20;;
43620;SDS011;29213;50.770;7.298;2022-12-22T14:29:03;9.57;;;6.30;;
43620;SDS011;29213;50.770;7.298;2022-12-22T14:31:49;8.57;;;6.53;;
43620;SDS011;29213;50.770;7.298;2022-12-22T14:34:26;10.20;;;7.00;;
43620;SDS011;29213;50.770;7.298;2022-12-22T14:36:56;10.48;;;6.57;;
43620;SDS011;29213;50.770;7.298;2022-12-22T14:39:23;9.20;;;6.65;;
43620;SDS011;29213;50.770;7.298;2022-12-22T14:41:51;9.82;;;6.63;;
43620;SDS011;29213;50.770;7.298;2022-12-22T14:44:23;8.55;;;6.45;;
43620;SDS011;29213;50.770;7.298;2022-12-22T14:49:48;8.93;;;6.60;;
43620;SDS011;29213;50.770;7.298;2022-12-22T14:52:27;7.93;;;5.82;;
43620;SDS011;29213;50.770;7.298;2022-12-22T14:54:57;8.30;;;6.00;;
43620;SDS011;29213;50.770;7.298;2022-12-22T14:57:28;7.70;;;5.68;;
43620;SDS011;29213;50.770;7.298;2022-12-22T15:00:00;10.18;;;6.47;;
43620;SDS011;29213;50.770;7.298;2022-12-22T15:02:30;9.75;;;7.47;;
43620;SDS011;29213;50.770;7.298;2022-12-22T15:05:08;11.82;;;8.32;;
43620;SDS011;29213;50.770;7.298;2022-12-22T15:07:56;9.48;;;7.15;;
43620;SDS011;29213;50.770;7.298;2022-12-22T15:10:22;9.98;;;7.07;;
43620;SDS011;29213;50.770;7.298;2022-12-22T15:12:50;14.32;;;9.52;;
43620;SDS011;29213;50.770;7.298;2022-12-22T15:15:20;12.77;;;9.07;;
43620;SDS011;29213;50.770;7.298;2022-12-22T15:17:47;12.32;;;8.65;;
43620;SDS011;29213;50.770;7.298;2022-12-22T15:20:15;10.00;;;7.18;;
43620;SDS011;29213;50.770;7.298;2022-12-22T15:22:44;9.65;;;6.65;;
43620;SDS011;29213;50.770;7.298;2022-12-22T15:25:20;10.63;;;7.05;;
43620;SDS011;29213;50.770;7.298;2022-12-22T15:27:48;12.73;;;8.05;;
43620;SDS011;29213;50.770;7.298;2022-12-22T15:30:15;12.77;;;9.20;;
43620;SDS011;29213;50.770;7.298;2022-12-22T15:32:43;10.13;;;7.00;;
43620;SDS011;29213;50.770;7.298;2022-12-22T15:35:16;11.63;;;7.82;;
43620;SDS011;29213;50.770;7.298;2022-12-22T15:37:44;13.52;;;9.10;;
43620;SDS011;29213;50.770;7.298;2022-12-22T15:40:17;12.57;;;8.52;;
43620;SDS011;29213;50.770;7.298;2022-12-22T15:42:44;10.43;;;6.57;;
43620;SDS011;29213;50.770;7.298;2022-12-22T15:45:10;10.88;;;7.03;;
43620;SDS011;29213;50.770;7.298;2022-12-22T15:47:36;15.60;;;10.20;;
43620;SDS011;29213;50.770;7.298;2022-12-22T15:50:02;17.20;;;11.15;;
43620;SDS011;29213;50.770;7.298;2022-12-22T15:52:29;15.20;;;10.80;;
43620;SDS011;29213;50.770;7.298;2022-12-22T15:54:55;17.27;;;11.60;;
43620;SDS011;29213;50.770;7.298;2022-12-22T15:57:21;15.23;;;10.73;;
43620;SDS011;29213;50.770;7.298;2022-12-22T15:59:47;15.68;;;10.18;;
43620;SDS011;29213;50.770;7.298;2022-12-22T16:02:12;13.75;;;9.52;;
43620;SDS011;29213;50.770;7.298;2022-12-22T16:04:38;13.90;;;10.15;;
43620;SDS011;29213;50.770;7.298;2022-12-22T16:07:03;14.27;;;9.85;;
43620;SDS011;29213;50.770;7.298;2022-12-22T16:09:31;11.70;;;8.77;;
43620;SDS011;29213;50.770;7.298;2022-12-22T16:12:13;12.80;;;9.25;;
43620;SDS011;29213;50.770;7.298;2022-12-22T16:14:41;11.88;;;8.43;;
43620;SDS011;29213;50.770;7.298;2022-12-22T16:17:16;11.93;;;8.93;;
43620;SDS011;29213;50.770;7.298;2022-12-22T16:19:44;13.32;;;9.30;;
43620;SDS011;29213;50.770;7.298;2022-12-22T16:22:10;11.90;;;8.25;;
43620;SDS011;29213;50.770;7.298;2022-12-22T16:24:37;12.00;;;8.38;;
43620;SDS011;29213;50.770;7.298;2022-12-22T16:27:05;11.98;;;8.25;;
43620;SDS011;29213;50.770;7.298;2022-12-22T16:29:30;10.65;;;7.88;;
43620;SDS011;29213;50.770;7.298;2022-12-22T16:32:41;12.40;;;8.63;;
43620;SDS011;29213;50.770;7.298;2022-12-22T16:34:49;12.55;;;9.15;;
43620;SDS011;29213;50.770;7.298;2022-12-22T16:37:15;13.10;;;8.60;;
43620;SDS011;29213;50.770;7.298;2022-12-22T16:39:40;10.52;;;7.97;;
43620;SDS011;29213;50.770;7.298;2022-12-22T16:42:10;13.52;;;8.70;;
43620;SDS011;29213;50.770;7.298;2022-12-22T16:44:37;11.43;;;7.50;;
43620;SDS011;29213;50.770;7.298;2022-12-22T16:47:03;11.13;;;7.53;;
43620;SDS011;29213;50.770;7.298;2022-12-22T16:49:29;9.45;;;6.82;;
43620;SDS011;29213;50.770;7.298;2022-12-22T16:51:54;11.35;;;8.25;;
43620;SDS011;29213;50.770;7.298;2022-12-22T16:54:20;10.40;;;8.13;;
43620;SDS011;29213;50.770;7.298;2022-12-22T16:56:45;10.73;;;8.13;;
43620;SDS011;29213;50.770;7.298;2022-12-22T16:59:12;10.70;;;8.00;;
43620;SDS011;29213;50.770;7.298;2022-12-22T17:01:53;10.77;;;7.97;;
43620;SDS011;29213;50.770;7.298;2022-12-22T17:04:21;13.52;;;9.93;;
43620;SDS011;29213;50.770;7.298;2022-12-22T17:06:48;13.25;;;8.70;;
43620;SDS011;29213;50.770;7.298;2022-12-22T17:09:19;11.73;;;8.32;;
43620;SDS011;29213;50.770;7.298;2022-12-22T17:11:53;18.15;;;12.38;;
43620;SDS011;29213;50.770;7.298;2022-12-22T17:14:22;14.65;;;11.32;;
43620;SDS011;29213;50.770;7.298;2022-12-22T17:16:53;11.30;;;6.57;;
43620;SDS011;29213;50.770;7.298;2022-12-22T17:19:18;11.75;;;7.65;;
43620;SDS011;29213;50.770;7.298;2022-12-22T17:21:44;9.13;;;6.85;;
43620;SDS011;29213;50.770;7.298;2022-12-22T17:24:14;11.30;;;7.80;;